FYKT/KMP METAR and TAF weather

Enter ICAO airport designator
Station Type Date Time Source
FYKT METAR 2019/06/16 07:00 UTC NOAA

FYKT 160700Z 02011KT CAVOK 14/M03 Q1026


Station Type Date Time Source
FYKT Decoded METAR 2019/06/16 07:00 UTC NOAA

Keetmanshoop, Namibia (FYKT) 26-32S 018-07E 1100M
Jun 16, 2019 - 03:00 AM EDT / 2019.06.16 0700 UTC
Wind: from the NNE (020 degrees) at 13 MPH (11 KT):0
Visibility: greater than 7 mile(s):0
Temperature: 57 F (14 C)
Dew Point: 26 F (-3 C)
Relative Humidity: 30%
Pressure (altimeter): 30.30 in. Hg (1026 hPa)
ob: FYKT 160700Z 02011KT CAVOK 14/M03 Q1026
cycle: 7

Station Type Date Time Source
FYKT TAF 2019/06/15 18:40 UTC NOAA

TAF FYKT 151600Z 1518/1618 36007KT CAVOK
BECMG 1520/1522 09006KT

Example: see airport list